createdAt,value
2023-01-25T00:00:24.432Z,18.73
2023-01-25T00:02:54.329Z,17.38
2023-01-25T00:05:24.238Z,17.55
2023-01-25T00:07:56.668Z,18.50
2023-01-25T00:10:26.727Z,17.83
2023-01-25T00:12:56.608Z,17.48
2023-01-25T00:15:26.532Z,18.75
2023-01-25T00:17:56.369Z,17.98
2023-01-25T00:20:26.209Z,17.83
2023-01-25T00:22:58.655Z,18.20
2023-01-25T00:25:28.596Z,17.77
2023-01-25T00:27:58.454Z,17.50
2023-01-25T00:30:28.294Z,17.27
2023-01-25T00:33:05.912Z,18.73
2023-01-25T00:35:37.427Z,16.95
2023-01-25T00:38:29.689Z,17.10
2023-01-25T00:41:01.312Z,17.40
2023-01-25T00:43:31.187Z,16.70
2023-01-25T00:46:03.969Z,17.27
2023-01-25T00:48:33.853Z,18.10
2023-01-25T00:51:03.932Z,18.40
2023-01-25T00:53:36.652Z,17.75
2023-01-25T00:56:07.340Z,17.73
2023-01-25T00:58:37.220Z,17.67
2023-01-25T01:01:07.465Z,18.00
2023-01-25T01:03:37.357Z,17.95
2023-01-25T01:06:11.217Z,18.17
2023-01-25T01:08:45.605Z,16.60
2023-01-25T01:11:16.455Z,17.83
2023-01-25T01:13:46.567Z,18.27
2023-01-25T01:16:16.789Z,17.55
2023-01-25T01:18:48.496Z,17.25
2023-01-25T01:21:18.500Z,17.40
2023-01-25T01:23:51.082Z,15.73
2023-01-25T01:26:22.116Z,16.02
2023-01-25T01:28:52.299Z,16.58
2023-01-25T01:31:25.340Z,16.25
2023-01-25T01:33:58.389Z,16.65
2023-01-25T01:36:31.249Z,16.85
2023-01-25T01:39:03.858Z,17.27
2023-01-25T01:41:33.744Z,17.25
2023-01-25T01:44:03.667Z,16.83
2023-01-25T01:46:38.288Z,15.65
2023-01-25T01:49:13.282Z,15.25
2023-01-25T01:51:49.819Z,16.50
2023-01-25T01:54:28.339Z,16.90
2023-01-25T01:57:01.598Z,15.38
2023-01-25T01:59:37.037Z,16.48
2023-01-25T02:02:07.800Z,16.48
2023-01-25T02:04:38.449Z,16.63
2023-01-25T02:07:13.290Z,16.02
2023-01-25T02:09:47.230Z,16.48
2023-01-25T02:12:17.740Z,16.55
2023-01-25T02:14:53.184Z,17.23
2023-01-25T02:17:29.581Z,15.80
2023-01-25T02:20:06.915Z,16.70
2023-01-25T02:22:49.214Z,17.65
2023-01-25T02:25:22.128Z,16.52
2023-01-25T02:27:57.515Z,16.98
2023-01-25T02:30:27.357Z,16.77
2023-01-25T02:32:57.214Z,16.13
2023-01-25T02:35:41.310Z,16.98
2023-01-25T02:38:15.147Z,16.13
2023-01-25T02:40:52.404Z,16.60
2023-01-25T02:43:22.739Z,16.15
2023-01-25T02:45:59.564Z,16.50
2023-01-25T02:48:29.442Z,17.27
2023-01-25T02:50:59.277Z,16.67
2023-01-25T02:53:29.157Z,17.92
2023-01-25T02:56:01.586Z,18.13
2023-01-25T02:58:31.457Z,17.60
2023-01-25T03:01:02.129Z,17.52
2023-01-25T03:03:32.053Z,16.77
2023-01-25T03:06:01.920Z,16.85
2023-01-25T03:08:31.775Z,16.42
2023-01-25T03:11:07.380Z,17.40
2023-01-25T03:13:38.763Z,17.30
2023-01-25T03:16:11.877Z,16.95
2023-01-25T03:18:43.486Z,16.50
2023-01-25T03:21:16.507Z,18.08
2023-01-25T03:23:48.102Z,17.33
2023-01-25T03:26:23.986Z,16.50
2023-01-25T03:28:53.919Z,17.20
2023-01-25T03:31:24.829Z,17.13
2023-01-25T03:33:55.120Z,18.13
2023-01-25T03:36:25.008Z,16.73
2023-01-25T03:38:54.901Z,16.27
2023-01-25T03:41:27.448Z,18.02
2023-01-25T03:43:57.301Z,18.25
2023-01-25T03:46:27.239Z,19.15
2023-01-25T03:48:57.104Z,17.85
2023-01-25T03:51:26.981Z,17.48
2023-01-25T03:53:56.851Z,18.13
2023-01-25T03:56:29.407Z,19.27
2023-01-25T03:58:59.275Z,18.27
2023-01-25T04:01:29.241Z,17.63
2023-01-25T04:03:59.232Z,17.95
2023-01-25T04:06:29.205Z,19.13
2023-01-25T04:08:59.107Z,18.05
2023-01-25T04:11:31.559Z,18.42
2023-01-25T04:14:01.521Z,18.13
2023-01-25T04:16:31.646Z,19.40
2023-01-25T04:19:01.589Z,18.88
2023-01-25T04:21:31.468Z,18.38
2023-01-25T04:24:01.356Z,18.50
2023-01-25T04:26:33.845Z,20.35
2023-01-25T04:29:03.702Z,20.98
2023-01-25T04:31:33.706Z,18.85
2023-01-25T04:34:03.615Z,19.50
2023-01-25T04:36:33.476Z,19.05
2023-01-25T04:39:03.317Z,20.05
2023-01-25T04:41:35.972Z,18.33
2023-01-25T04:44:05.821Z,19.58
2023-01-25T04:46:35.853Z,19.70
2023-01-25T04:49:05.972Z,20.80
2023-01-25T04:51:35.849Z,20.67
2023-01-25T04:54:05.853Z,19.63
2023-01-25T04:56:38.331Z,19.73
2023-01-25T04:59:08.192Z,19.45
2023-01-25T05:01:38.141Z,18.88
2023-01-25T05:04:08.025Z,20.88
2023-01-25T05:06:37.882Z,20.95
2023-01-25T05:09:07.743Z,20.88
2023-01-25T05:11:40.176Z,19.98
2023-01-25T05:14:10.089Z,19.95
2023-01-25T05:16:39.974Z,19.20
2023-01-25T05:19:11.496Z,22.33
2023-01-25T05:21:53.997Z,21.38
2023-01-25T05:24:23.947Z,21.85
2023-01-25T05:27:07.937Z,20.40
2023-01-25T05:29:40.246Z,20.83
2023-01-25T05:32:13.415Z,21.35
2023-01-25T05:34:43.753Z,21.80
2023-01-25T05:37:16.752Z,21.95
2023-01-25T05:39:46.699Z,20.60
2023-01-25T05:42:21.456Z,22.10
2023-01-25T05:47:21.546Z,19.83
2023-01-25T05:49:51.619Z,20.20
2023-01-25T05:52:21.603Z,20.85
2023-01-25T05:54:52.145Z,21.45
2023-01-25T05:57:24.638Z,23.35
2023-01-25T05:59:54.517Z,22.13
2023-01-25T06:02:24.574Z,22.23
2023-01-25T06:04:54.465Z,19.73
2023-01-25T06:07:24.819Z,19.65
2023-01-25T06:09:54.704Z,17.95
2023-01-25T06:12:29.367Z,18.30
2023-01-25T06:14:59.786Z,18.27
2023-01-25T06:17:29.673Z,18.15
2023-01-25T06:19:59.540Z,17.70
2023-01-25T06:22:29.466Z,17.30
2023-01-25T06:24:59.310Z,17.90
2023-01-25T06:27:31.772Z,17.48
2023-01-25T06:30:01.826Z,17.35
2023-01-25T06:32:35.265Z,18.02
2023-01-25T06:35:05.240Z,16.88
2023-01-25T06:37:35.246Z,17.80
2023-01-25T06:40:05.155Z,16.65
2023-01-25T06:42:37.613Z,18.00
2023-01-25T06:45:09.831Z,13.93
2023-01-25T06:47:39.852Z,14.43
2023-01-25T06:50:11.987Z,14.27
2023-01-25T06:52:42.239Z,13.98
2023-01-25T06:55:14.073Z,12.55
2023-01-25T06:57:46.525Z,13.07
2023-01-25T07:00:19.484Z,12.35
2023-01-25T07:02:49.444Z,13.68
2023-01-25T07:05:19.585Z,12.63
2023-01-25T07:07:50.434Z,12.73
2023-01-25T07:10:20.604Z,14.05
2023-01-25T07:12:53.045Z,14.25
2023-01-25T07:15:23.791Z,15.77
2023-01-25T07:17:53.671Z,15.88
2023-01-25T07:20:23.496Z,14.70
2023-01-25T07:22:53.371Z,13.40
2023-01-25T07:25:23.205Z,13.13
2023-01-25T07:27:55.653Z,14.50
2023-01-25T07:30:25.500Z,14.27
2023-01-25T07:32:55.661Z,13.25
2023-01-25T07:35:25.545Z,12.85
2023-01-25T07:37:55.407Z,12.25
2023-01-25T07:40:25.682Z,13.15
2023-01-25T07:42:58.628Z,13.23
2023-01-25T07:45:30.502Z,12.73
2023-01-25T07:48:01.518Z,12.55
2023-01-25T07:50:31.725Z,13.02
2023-01-25T07:53:01.560Z,14.43
2023-01-25T07:55:31.520Z,13.48
2023-01-25T07:58:04.024Z,13.90
2023-01-25T08:00:34.021Z,13.80
2023-01-25T08:03:03.867Z,13.65
2023-01-25T08:05:33.705Z,13.43
2023-01-25T08:08:03.659Z,13.70
2023-01-25T08:10:33.524Z,15.02
2023-01-25T08:13:06.932Z,15.50
2023-01-25T08:15:36.987Z,15.27
2023-01-25T08:18:07.221Z,15.07
2023-01-25T08:20:37.752Z,15.00
2023-01-25T08:23:07.670Z,15.82
2023-01-25T08:25:37.511Z,15.85
2023-01-25T08:28:10.007Z,15.25
2023-01-25T08:30:52.043Z,16.30
2023-01-25T08:33:26.220Z,17.40
2023-01-25T08:35:59.281Z,16.70
2023-01-25T08:38:29.258Z,17.08
2023-01-25T08:40:59.131Z,17.95
2023-01-25T08:43:31.588Z,17.55
2023-01-25T08:46:01.759Z,18.67
2023-01-25T08:48:31.759Z,16.92
2023-01-25T08:51:01.688Z,17.42
2023-01-25T08:53:32.181Z,19.23
2023-01-25T08:56:07.344Z,18.95
2023-01-25T08:58:42.488Z,17.40
2023-01-25T09:01:15.368Z,18.00
2023-01-25T09:03:49.493Z,17.70
2023-01-25T09:06:21.351Z,15.48
2023-01-25T09:08:51.862Z,14.90
2023-01-25T09:11:24.378Z,15.00
2023-01-25T09:13:56.831Z,15.10
2023-01-25T09:16:30.882Z,14.88
2023-01-25T09:19:03.363Z,15.15
2023-01-25T09:21:34.489Z,15.65
2023-01-25T09:24:06.510Z,15.68
2023-01-25T09:26:38.705Z,15.45
2023-01-25T09:29:15.153Z,16.05
2023-01-25T09:31:46.213Z,16.95
2023-01-25T09:34:18.207Z,19.30
2023-01-25T09:36:48.090Z,17.60
2023-01-25T09:39:17.942Z,17.08
2023-01-25T09:42:25.948Z,16.35
2023-01-25T09:45:18.306Z,17.23
2023-01-25T09:47:54.116Z,18.83
2023-01-25T09:51:00.474Z,17.83
2023-01-25T09:53:36.681Z,18.67
2023-01-25T09:56:13.227Z,18.95
2023-01-25T09:58:47.290Z,19.08
2023-01-25T10:01:45.698Z,20.40
2023-01-25T10:04:20.468Z,19.23
2023-01-25T10:09:40.363Z,20.92
2023-01-25T10:12:22.553Z,24.48
2023-01-25T10:14:53.134Z,28.10
2023-01-25T10:17:34.576Z,27.08
2023-01-25T10:20:20.971Z,25.23
2023-01-25T10:22:57.416Z,25.42
2023-01-25T10:25:39.367Z,25.60
2023-01-25T10:28:29.868Z,23.90
2023-01-25T10:31:04.998Z,24.20
2023-01-25T10:33:43.519Z,23.65
2023-01-25T10:36:17.297Z,24.70
2023-01-25T10:38:49.667Z,23.02
2023-01-25T10:41:27.035Z,24.90
2023-01-25T10:44:21.771Z,23.75
2023-01-25T10:46:59.252Z,24.08
2023-01-25T10:49:43.722Z,21.08
2023-01-25T10:52:19.983Z,21.80
2023-01-25T10:54:51.501Z,21.42
2023-01-25T10:57:24.154Z,20.40
2023-01-25T10:59:55.823Z,19.70
2023-01-25T11:02:43.987Z,19.40
2023-01-25T11:05:36.417Z,19.30
2023-01-25T11:08:27.029Z,19.75
2023-01-25T11:10:57.401Z,21.25
2023-01-25T11:13:29.968Z,18.90
2023-01-25T11:16:29.946Z,19.67
2023-01-25T11:19:02.783Z,21.13
2023-01-25T11:21:36.847Z,23.35
2023-01-25T11:24:20.644Z,25.35
2023-01-25T11:26:50.800Z,21.58
2023-01-25T11:29:22.119Z,20.83
2023-01-25T11:31:55.151Z,20.70
2023-01-25T11:34:29.963Z,22.35
2023-01-25T11:40:02.437Z,20.33
2023-01-25T11:42:42.816Z,18.92
2023-01-25T11:45:39.597Z,19.08
2023-01-25T11:48:47.759Z,18.85
2023-01-25T11:51:28.831Z,19.00
2023-01-25T11:54:45.389Z,17.90
2023-01-25T11:57:48.192Z,18.40
2023-01-25T12:00:36.277Z,17.65
2023-01-25T12:03:46.614Z,19.05
2023-01-25T12:06:22.156Z,19.17
2023-01-25T12:09:38.445Z,19.60
2023-01-25T12:12:27.593Z,16.83
2023-01-25T12:15:37.278Z,17.55
2023-01-25T12:18:42.420Z,19.10
2023-01-25T12:21:31.393Z,18.67
2023-01-25T12:24:18.218Z,21.33
2023-01-25T12:26:56.388Z,22.30
2023-01-25T12:29:39.481Z,21.70
2023-01-25T12:32:15.694Z,20.45
2023-01-25T12:34:51.190Z,20.63
2023-01-25T12:37:24.706Z,21.85
2023-01-25T12:40:01.190Z,21.33
2023-01-25T12:42:38.615Z,21.27
2023-01-25T12:45:18.394Z,21.27
2023-01-25T12:47:52.546Z,21.42
2023-01-25T12:50:30.847Z,21.85
2023-01-25T12:53:08.075Z,20.77
2023-01-25T12:55:37.925Z,20.92
2023-01-25T12:58:23.830Z,21.63
2023-01-25T13:01:12.781Z,22.05
2023-01-25T13:04:01.266Z,21.92
2023-01-25T13:06:39.902Z,21.45
2023-01-25T13:09:18.176Z,21.10
2023-01-25T13:11:50.076Z,20.20
2023-01-25T13:14:34.226Z,21.90
2023-01-25T13:17:38.263Z,21.17
2023-01-25T13:20:50.718Z,21.13
2023-01-25T13:23:34.827Z,22.25
2023-01-25T13:26:41.873Z,21.48
2023-01-25T13:29:59.852Z,22.58
2023-01-25T13:33:08.996Z,23.27
2023-01-25T13:35:45.064Z,20.63
2023-01-25T13:38:36.671Z,22.00
2023-01-25T13:41:17.146Z,20.73
2023-01-25T13:44:16.227Z,20.23
2023-01-25T13:46:46.095Z,19.83
2023-01-25T13:49:27.588Z,21.60
2023-01-25T13:51:57.572Z,21.42
2023-01-25T13:54:27.477Z,20.75
2023-01-25T13:57:08.983Z,19.83
2023-01-25T13:59:38.854Z,20.10
2023-01-25T14:02:16.537Z,19.40
2023-01-25T14:04:51.568Z,21.67
2023-01-25T14:07:25.099Z,21.67
2023-01-25T14:09:56.038Z,21.90
2023-01-25T14:12:38.100Z,22.15
2023-01-25T14:15:27.110Z,22.23
2023-01-25T14:18:17.621Z,21.95
2023-01-25T14:20:53.693Z,22.65
2023-01-25T14:23:28.725Z,23.02
2023-01-25T14:26:02.180Z,22.20
2023-01-25T14:28:33.028Z,22.70
2023-01-25T14:31:06.125Z,23.10
2023-01-25T14:33:44.531Z,20.98
2023-01-25T14:36:25.263Z,20.20
2023-01-25T14:38:56.317Z,19.33
2023-01-25T14:41:31.784Z,21.30
2023-01-25T14:44:06.115Z,22.45
2023-01-25T14:46:38.244Z,20.33
2023-01-25T14:49:30.212Z,19.05
2023-01-25T14:52:08.655Z,20.15
2023-01-25T14:54:40.905Z,19.73
2023-01-25T14:57:32.547Z,19.85
2023-01-25T15:00:04.862Z,18.88
2023-01-25T15:02:41.942Z,17.95
2023-01-25T15:05:24.105Z,18.42
2023-01-25T15:07:58.654Z,19.35
2023-01-25T15:10:30.577Z,19.33
2023-01-25T15:13:13.598Z,18.48
2023-01-25T15:15:58.002Z,19.33
2023-01-25T15:18:44.945Z,20.17
2023-01-25T15:21:16.860Z,20.58
2023-01-25T15:23:50.825Z,20.95
2023-01-25T15:26:23.797Z,21.42
2023-01-25T15:28:55.867Z,22.38
2023-01-25T15:31:29.936Z,28.40
2023-01-25T15:34:01.547Z,21.70
2023-01-25T15:36:32.825Z,23.10
2023-01-25T15:39:05.249Z,24.92
2023-01-25T15:41:35.121Z,30.23
2023-01-25T15:44:05.759Z,23.48
2023-01-25T15:46:36.038Z,23.50
2023-01-25T15:49:08.752Z,22.45
2023-01-25T15:51:38.651Z,22.92
2023-01-25T15:54:11.672Z,29.33
2023-01-25T15:56:44.993Z,38.40
2023-01-25T15:59:20.326Z,26.60
2023-01-25T16:01:50.623Z,26.83
2023-01-25T16:04:20.850Z,20.33
2023-01-25T16:06:53.560Z,20.67
2023-01-25T16:09:29.896Z,25.52
2023-01-25T16:12:02.490Z,22.25
2023-01-25T16:14:33.267Z,27.13
2023-01-25T16:17:06.393Z,20.65
2023-01-25T16:19:37.370Z,20.05
2023-01-25T16:22:07.352Z,19.65
2023-01-25T16:24:39.831Z,19.95
2023-01-25T16:27:20.244Z,18.42
2023-01-25T16:29:50.357Z,22.52
2023-01-25T16:32:20.265Z,21.13
2023-01-25T16:34:50.597Z,20.30
2023-01-25T16:37:21.172Z,21.77
2023-01-25T16:39:53.975Z,24.27
2023-01-25T16:42:24.347Z,20.30
2023-01-25T16:44:54.258Z,21.52
2023-01-25T16:47:25.458Z,20.38
2023-01-25T16:49:56.005Z,21.02
2023-01-25T16:52:26.026Z,21.95
2023-01-25T16:54:59.604Z,20.48
2023-01-25T16:57:29.474Z,22.20
2023-01-25T17:00:00.590Z,24.13
2023-01-25T17:02:31.458Z,23.98
2023-01-25T17:05:01.334Z,22.88
2023-01-25T17:07:31.248Z,20.88
2023-01-25T17:10:04.126Z,21.10
2023-01-25T17:12:34.381Z,20.13
2023-01-25T17:15:04.317Z,19.80
2023-01-25T17:17:34.215Z,19.45
2023-01-25T17:20:04.902Z,19.42
2023-01-25T17:22:37.616Z,22.25
2023-01-25T17:25:11.045Z,19.77
2023-01-25T17:27:42.553Z,18.33
2023-01-25T17:30:14.757Z,20.00
2023-01-25T17:32:44.795Z,19.58
2023-01-25T17:35:14.689Z,18.67
2023-01-25T17:37:44.564Z,20.75
2023-01-25T17:40:17.660Z,26.42
2023-01-25T17:42:47.509Z,19.52
2023-01-25T17:45:17.382Z,18.23
2023-01-25T17:47:47.280Z,18.40
2023-01-25T17:50:17.343Z,18.90
2023-01-25T17:52:47.440Z,18.33
2023-01-25T17:55:20.237Z,19.58
2023-01-25T17:57:51.283Z,20.80
2023-01-25T18:00:22.507Z,19.52
2023-01-25T18:02:53.787Z,19.88
2023-01-25T18:05:24.478Z,33.13
2023-01-25T18:07:54.377Z,27.40
2023-01-25T18:10:26.909Z,28.60
2023-01-25T18:13:04.474Z,20.38
2023-01-25T18:15:35.718Z,23.25
2023-01-25T18:18:05.631Z,20.48
2023-01-25T18:20:35.475Z,20.27
2023-01-25T18:23:05.333Z,19.20
2023-01-25T18:25:39.356Z,19.00
2023-01-25T18:28:10.120Z,16.60
2023-01-25T18:30:45.888Z,17.65
2023-01-25T18:33:15.791Z,17.45
2023-01-25T18:35:47.888Z,19.23
2023-01-25T18:38:18.012Z,19.65
2023-01-25T18:40:50.433Z,20.23
2023-01-25T18:43:20.397Z,25.85
2023-01-25T18:45:57.148Z,25.48
2023-01-25T18:48:30.488Z,21.23
2023-01-25T18:51:01.299Z,31.27
2023-01-25T18:53:34.237Z,25.92
2023-01-25T18:56:10.179Z,40.78
2023-01-25T18:58:40.904Z,23.15
2023-01-25T19:01:14.196Z,34.83
2023-01-25T19:03:44.849Z,19.73
2023-01-25T19:06:15.283Z,18.58
2023-01-25T19:08:49.731Z,17.50
2023-01-25T19:11:24.416Z,19.17
2023-01-25T19:16:26.921Z,17.30
2023-01-25T19:18:57.918Z,18.73
2023-01-25T19:21:29.637Z,19.10
2023-01-25T19:24:00.092Z,20.83
2023-01-25T19:26:32.785Z,20.92
2023-01-25T19:29:02.739Z,22.05
2023-01-25T19:31:33.684Z,28.00
2023-01-25T19:34:06.430Z,21.40
2023-01-25T19:36:38.841Z,21.02
2023-01-25T19:39:11.523Z,18.60
2023-01-25T19:41:44.078Z,21.00
2023-01-25T19:44:16.468Z,22.05
2023-01-25T19:46:46.657Z,20.40
2023-01-25T19:49:17.181Z,21.55
2023-01-25T19:51:52.977Z,22.88
2023-01-25T19:54:24.304Z,18.67
2023-01-25T19:56:58.508Z,21.67
2023-01-25T19:59:29.094Z,18.23
2023-01-25T20:01:59.088Z,19.27
2023-01-25T20:04:29.009Z,18.13
2023-01-25T20:06:59.030Z,18.17
2023-01-25T20:09:29.150Z,17.45
2023-01-25T20:12:03.114Z,18.70
2023-01-25T20:14:33.091Z,19.33
2023-01-25T20:17:02.952Z,20.02
2023-01-25T20:19:35.153Z,18.60
2023-01-25T20:22:05.129Z,19.00
2023-01-25T20:24:35.045Z,17.55
2023-01-25T20:27:07.622Z,17.58
2023-01-25T20:29:37.737Z,17.92
2023-01-25T20:32:09.653Z,18.88
2023-01-25T20:34:39.830Z,27.63
2023-01-25T20:37:09.675Z,24.42
2023-01-25T20:39:39.529Z,23.52
2023-01-25T20:42:12.000Z,18.65
2023-01-25T20:44:41.849Z,50.75
2023-01-25T20:47:11.745Z,20.73
2023-01-25T20:49:41.598Z,16.10
2023-01-25T20:52:13.796Z,16.52
2023-01-25T20:54:43.964Z,15.63
2023-01-25T20:57:16.444Z,16.15
2023-01-25T20:59:46.274Z,17.13
2023-01-25T21:02:16.215Z,14.90
2023-01-25T21:04:46.087Z,15.57
2023-01-25T21:07:15.920Z,15.32
2023-01-25T21:09:45.769Z,15.38
2023-01-25T21:12:18.261Z,15.50
2023-01-25T21:14:48.489Z,16.02
2023-01-25T21:17:18.341Z,14.93
2023-01-25T21:19:48.189Z,15.95
2023-01-25T21:22:18.648Z,15.15
2023-01-25T21:24:48.628Z,16.65
2023-01-25T21:27:21.087Z,16.90
2023-01-25T21:29:50.943Z,18.05
2023-01-25T21:32:20.875Z,18.17
2023-01-25T21:34:50.691Z,15.93
2023-01-25T21:37:22.507Z,14.30
2023-01-25T21:39:52.353Z,15.43
2023-01-25T21:42:24.797Z,15.98
2023-01-25T21:45:07.149Z,16.73
2023-01-25T21:47:37.041Z,15.95
2023-01-25T21:50:20.037Z,17.45
2023-01-25T21:52:49.902Z,15.90
2023-01-25T21:55:19.917Z,17.55
2023-01-25T21:57:52.372Z,16.63
2023-01-25T22:00:23.431Z,17.27
2023-01-25T22:02:54.216Z,16.40
2023-01-25T22:05:24.114Z,15.88
2023-01-25T22:07:53.973Z,15.77
2023-01-25T22:10:24.426Z,16.75
2023-01-25T22:12:56.842Z,16.05
2023-01-25T22:15:26.859Z,17.13
2023-01-25T22:17:56.748Z,15.23
2023-01-25T22:20:26.590Z,17.75
2023-01-25T22:22:56.432Z,16.10
2023-01-25T22:25:26.303Z,14.73
2023-01-25T22:28:03.121Z,15.63
2023-01-25T22:30:33.005Z,15.75
2023-01-25T22:33:02.873Z,15.93
2023-01-25T22:35:32.737Z,16.10
2023-01-25T22:38:02.602Z,14.85
2023-01-25T22:40:32.605Z,16.05
2023-01-25T22:43:05.041Z,15.48
2023-01-25T22:45:34.882Z,15.63
2023-01-25T22:48:04.730Z,15.63
2023-01-25T22:50:34.599Z,15.88
2023-01-25T22:53:04.437Z,15.45
2023-01-25T22:55:34.282Z,16.00
2023-01-25T22:58:06.805Z,16.20
2023-01-25T23:00:36.673Z,16.20
2023-01-25T23:03:07.200Z,15.25
2023-01-25T23:05:37.101Z,15.70
2023-01-25T23:08:07.490Z,37.95
2023-01-25T23:10:37.353Z,18.98
2023-01-25T23:13:09.761Z,16.65
2023-01-25T23:15:40.320Z,16.35
2023-01-25T23:18:24.901Z,15.48
2023-01-25T23:20:55.068Z,15.30
2023-01-25T23:23:24.927Z,16.70
2023-01-25T23:25:54.806Z,15.75
2023-01-25T23:28:27.303Z,17.70
2023-01-25T23:31:11.186Z,16.38
2023-01-25T23:33:41.183Z,17.08
2023-01-25T23:36:12.462Z,16.52
2023-01-25T23:38:46.143Z,17.00
2023-01-25T23:41:16.478Z,16.10
2023-01-25T23:43:50.151Z,17.33
2023-01-25T23:46:20.865Z,17.75
2023-01-25T23:48:51.080Z,16.67
2023-01-25T23:51:22.437Z,17.10
2023-01-25T23:53:53.518Z,14.90
2023-01-25T23:56:24.689Z,16.83
2023-01-25T23:58:57.137Z,16.00
